createdAt,value
2022-09-21T00:01:39.813Z,95494.55
2022-09-21T00:04:08.078Z,95490.82
2022-09-21T00:06:38.121Z,95494.27
2022-09-21T00:09:08.380Z,95490.61
2022-09-21T00:11:37.206Z,95492.06
2022-09-21T00:14:13.286Z,95491.87
2022-09-21T00:16:43.475Z,95488.10
2022-09-21T00:19:12.243Z,95490.69
2022-09-21T00:21:40.493Z,95490.94
2022-09-21T00:24:08.922Z,95492.50
2022-09-21T00:26:37.275Z,95493.55
2022-09-21T00:29:05.812Z,95492.85
2022-09-21T00:31:35.431Z,95488.73
2022-09-21T00:34:03.883Z,95490.30
2022-09-21T00:36:32.114Z,95490.58
2022-09-21T00:39:01.976Z,95490.16
2022-09-21T00:41:32.830Z,95497.12
2022-09-21T00:44:16.230Z,95496.30
2022-09-21T00:46:45.834Z,95494.89
2022-09-21T00:49:15.332Z,95495.81
2022-09-21T00:51:44.591Z,95495.56
2022-09-21T00:54:20.753Z,95493.33
2022-09-21T00:56:48.967Z,95491.44
2022-09-21T00:59:21.672Z,95490.05
2022-09-21T01:01:51.516Z,95494.31
2022-09-21T01:04:20.529Z,95493.39
2022-09-21T01:06:50.496Z,95493.02
2022-09-21T01:09:19.801Z,95490.63
2022-09-21T01:12:15.315Z,95489.05
2022-09-21T01:15:08.001Z,95488.19
2022-09-21T01:17:46.742Z,95492.63
2022-09-21T01:20:29.519Z,95487.71
2022-09-21T01:23:09.637Z,95487.38
2022-09-21T01:25:40.691Z,95485.39
2022-09-21T01:28:46.369Z,95481.38
2022-09-21T01:31:22.064Z,95479.87
2022-09-21T01:33:55.809Z,95479.64
2022-09-21T01:36:28.794Z,95478.13
2022-09-21T01:39:05.865Z,95477.88
2022-09-21T01:41:35.688Z,95480.08
2022-09-21T01:44:08.758Z,95480.06
2022-09-21T01:46:38.330Z,95480.44
2022-09-21T01:49:13.174Z,95477.30
2022-09-21T01:51:46.890Z,95478.64
2022-09-21T01:54:22.617Z,95478.42
2022-09-21T01:57:00.195Z,95479.93
2022-09-21T01:59:51.137Z,95481.39
2022-09-21T02:02:45.254Z,95484.82
2022-09-21T02:05:16.582Z,95481.66
2022-09-21T02:07:45.692Z,95478.66
2022-09-21T02:10:21.230Z,95480.45
2022-09-21T02:12:53.731Z,95483.01
2022-09-21T02:15:29.034Z,95480.83
2022-09-21T02:18:08.967Z,95480.67
2022-09-21T02:20:49.278Z,95480.45
2022-09-21T02:23:49.471Z,95483.67
2022-09-21T02:26:26.785Z,95477.50
2022-09-21T02:29:10.358Z,95479.12
2022-09-21T02:31:59.491Z,95483.42
2022-09-21T02:34:46.506Z,95483.83
2022-09-21T02:37:24.349Z,95487.36
2022-09-21T02:40:13.857Z,95483.16
2022-09-21T02:42:45.370Z,95486.20
2022-09-21T02:45:26.704Z,95487.06
2022-09-21T02:48:04.793Z,95489.48
2022-09-21T02:50:40.650Z,95491.09
2022-09-21T02:53:11.610Z,95493.47
2022-09-21T02:55:40.353Z,95490.79
2022-09-21T02:58:13.145Z,95491.48
2022-09-21T03:00:41.406Z,95491.76
2022-09-21T03:03:18.532Z,95495.90
2022-09-21T03:05:52.550Z,95497.59
2022-09-21T03:08:21.082Z,95500.79
2022-09-21T03:10:50.833Z,95501.20
2022-09-21T03:13:19.047Z,95503.79
2022-09-21T03:15:47.595Z,95499.27
2022-09-21T03:18:16.132Z,95502.81
2022-09-21T03:20:46.252Z,95503.11
2022-09-21T03:23:14.781Z,95503.12
2022-09-21T03:25:47.765Z,95501.02
2022-09-21T03:28:16.642Z,95502.49
2022-09-21T03:30:45.089Z,95504.05
2022-09-21T03:33:13.827Z,95504.54
2022-09-21T03:35:42.782Z,95504.24
2022-09-21T03:38:11.993Z,95505.20
2022-09-21T03:40:40.151Z,95505.17
2022-09-21T03:43:08.331Z,95504.84
2022-09-21T03:45:38.289Z,95501.20
2022-09-21T03:48:06.874Z,95501.16
2022-09-21T03:50:35.128Z,95501.44
2022-09-21T03:53:03.822Z,95499.25
2022-09-21T03:55:32.834Z,95501.52
2022-09-21T03:58:01.136Z,95499.16
2022-09-21T04:00:29.957Z,95501.97
2022-09-21T04:02:58.273Z,95502.80
2022-09-21T04:05:27.929Z,95503.48
2022-09-21T04:07:56.918Z,95501.68
2022-09-21T04:10:32.919Z,95501.96
2022-09-21T04:13:02.277Z,95508.24
2022-09-21T04:15:31.420Z,95511.11
2022-09-21T04:17:59.750Z,95516.32
2022-09-21T04:20:28.030Z,95516.02
2022-09-21T04:22:58.103Z,95521.55
2022-09-21T04:25:26.213Z,95523.69
2022-09-21T04:27:54.538Z,95526.75
2022-09-21T04:30:22.610Z,95524.77
2022-09-21T04:32:50.766Z,95523.08
2022-09-21T04:35:18.961Z,95524.77
2022-09-21T04:37:47.094Z,95528.09
2022-09-21T04:40:15.803Z,95528.21
2022-09-21T04:42:44.000Z,95528.94
2022-09-21T04:45:13.021Z,95531.83
2022-09-21T04:47:41.208Z,95526.98
2022-09-21T04:50:09.873Z,95531.86
2022-09-21T04:52:38.037Z,95528.35
2022-09-21T04:55:08.675Z,95527.04
2022-09-21T05:00:38.933Z,95526.08
2022-09-21T05:03:07.502Z,95529.04
2022-09-21T05:05:37.532Z,95533.90
2022-09-21T05:08:11.477Z,95529.71
2022-09-21T05:10:42.033Z,95535.52
2022-09-21T05:13:14.731Z,95541.59
2022-09-21T05:15:48.557Z,95548.13
2022-09-21T05:18:22.734Z,95543.86
2022-09-21T05:20:59.323Z,95546.34
2022-09-21T05:23:36.078Z,95547.42
2022-09-21T05:26:13.781Z,95545.11
2022-09-21T05:28:48.051Z,95549.20
2022-09-21T05:31:19.532Z,95543.20
2022-09-21T05:34:00.941Z,95537.20
2022-09-21T05:36:40.674Z,95538.92
2022-09-21T05:39:17.077Z,95536.86
2022-09-21T05:46:56.673Z,95538.48
2022-09-21T05:50:26.290Z,95540.84
2022-09-21T05:54:17.919Z,95543.63
2022-09-21T06:00:22.994Z,95542.11
2022-09-21T06:17:53.136Z,95538.27
2022-09-21T06:20:46.078Z,95541.99
2022-09-21T06:23:25.519Z,95546.05
2022-09-21T06:26:18.657Z,95549.41
2022-09-21T06:28:58.823Z,95550.95
2022-09-21T06:31:30.600Z,95557.85
2022-09-21T06:34:05.554Z,95565.25
2022-09-21T06:36:44.887Z,95561.54
2022-09-21T06:39:14.999Z,95559.25
2022-09-21T06:41:55.485Z,95561.70
2022-09-21T06:44:27.457Z,95560.42
2022-09-21T06:46:59.311Z,95559.41
2022-09-21T06:49:54.121Z,95560.29
2022-09-21T06:52:43.715Z,95563.80
2022-09-21T06:55:16.332Z,95559.88
2022-09-21T06:57:53.812Z,95561.88
2022-09-21T07:00:31.263Z,95560.79
2022-09-21T07:03:06.028Z,95568.30
2022-09-21T07:05:40.154Z,95571.92
2022-09-21T07:11:05.812Z,95569.91
2022-09-21T07:13:40.883Z,95566.98
2022-09-21T07:16:15.085Z,95563.76
2022-09-21T07:19:10.025Z,95556.91
2022-09-21T07:21:42.248Z,95560.08
2022-09-21T07:25:34.832Z,95559.35
2022-09-21T07:28:06.753Z,95560.04
2022-09-21T07:30:42.302Z,95556.67
2022-09-21T07:33:15.175Z,95561.25
2022-09-21T07:35:58.067Z,95565.00
2022-09-21T07:38:29.486Z,95565.43
2022-09-21T07:41:03.405Z,95568.55
2022-09-21T07:43:35.509Z,95560.04
2022-09-21T07:46:09.708Z,95566.89
2022-09-21T07:48:39.150Z,95565.80
2022-09-21T07:51:11.540Z,95567.86
2022-09-21T07:53:45.132Z,95564.56
2022-09-21T07:56:20.549Z,95567.75
2022-09-21T07:59:15.383Z,95569.89
2022-09-21T08:01:53.151Z,95564.47
2022-09-21T08:04:36.080Z,95569.48
2022-09-21T08:07:28.555Z,95565.44
2022-09-21T08:40:54.923Z,95566.94
2022-09-21T08:43:45.280Z,95571.23
2022-09-21T08:46:26.369Z,95572.98
2022-09-21T08:52:25.877Z,95568.88
2022-09-21T08:58:28.846Z,95562.92
2022-09-21T09:01:20.296Z,95567.65
2022-09-21T09:04:31.658Z,95570.30
2022-09-21T09:07:55.848Z,95566.99
2022-09-21T09:11:33.799Z,95565.44
2022-09-21T09:14:45.250Z,95568.71
2022-09-21T09:18:23.835Z,95576.80
2022-09-21T09:21:30.146Z,95574.98
2022-09-21T09:24:39.914Z,95577.73
2022-09-21T09:27:39.526Z,95579.86
2022-09-21T09:30:32.664Z,95579.38
2022-09-21T09:33:26.513Z,95584.09
2022-09-21T09:36:12.206Z,95581.19
2022-09-21T09:42:19.626Z,95560.56
2022-09-21T09:45:37.723Z,95559.95
2022-09-21T09:48:26.335Z,95551.11
2022-09-21T09:54:41.466Z,95556.17
2022-09-21T09:57:23.952Z,95551.41
2022-09-21T10:00:14.560Z,95544.77
2022-09-21T10:03:01.808Z,95550.21
2022-09-21T10:05:50.292Z,95548.20
2022-09-21T10:08:48.204Z,95547.44
2022-09-21T10:11:52.636Z,95537.70
2022-09-21T10:14:40.969Z,95535.52
2022-09-21T10:17:29.210Z,95528.66
2022-09-21T10:20:01.426Z,95534.38
2022-09-21T10:22:41.663Z,95532.48
2022-09-21T10:25:21.316Z,95532.52
2022-09-21T10:28:00.115Z,95527.92
2022-09-21T10:30:52.031Z,95527.29
2022-09-21T10:33:25.493Z,95532.77
2022-09-21T10:36:00.167Z,95531.83
2022-09-21T10:38:37.300Z,95535.27
2022-09-21T10:41:07.093Z,95530.29
2022-09-21T10:43:48.736Z,95531.25
2022-09-21T10:46:41.511Z,95526.30
2022-09-21T10:49:26.576Z,95526.67
2022-09-21T10:51:59.700Z,95531.65
2022-09-21T10:54:32.884Z,95533.07
2022-09-21T10:57:07.169Z,95534.23
2022-09-21T10:59:40.080Z,95532.06
2022-09-21T11:02:35.589Z,95524.73
2022-09-21T11:05:23.834Z,95523.41
2022-09-21T11:08:20.029Z,95518.02
2022-09-21T11:11:35.820Z,95523.20
2022-09-21T11:14:14.921Z,95523.08
2022-09-21T11:16:52.715Z,95524.50
2022-09-21T11:19:46.683Z,95514.97
2022-09-21T11:22:35.850Z,95516.48
2022-09-21T11:25:35.744Z,95515.74
2022-09-21T11:28:30.342Z,95515.89
2022-09-21T11:31:30.126Z,95519.66
2022-09-21T11:34:16.701Z,95517.69
2022-09-21T11:37:22.497Z,95520.30
2022-09-21T11:40:22.327Z,95521.94
2022-09-21T11:43:07.256Z,95519.41
2022-09-21T11:46:16.017Z,95526.77
2022-09-21T11:49:03.122Z,95521.59
2022-09-21T11:51:50.777Z,95527.52
2022-09-21T11:54:39.734Z,95520.20
2022-09-21T11:57:19.201Z,95517.62
2022-09-21T12:00:18.037Z,95513.98
2022-09-21T12:03:18.951Z,95512.17
2022-09-21T12:06:05.706Z,95509.44
2022-09-21T12:08:59.961Z,95509.02
2022-09-21T12:11:44.069Z,95504.21
2022-09-21T12:14:20.105Z,95518.93
2022-09-21T12:16:48.259Z,95525.94
2022-09-21T12:19:43.619Z,95528.15
2022-09-21T12:22:18.646Z,95524.75
2022-09-21T12:24:52.607Z,95525.09
2022-09-21T12:27:30.715Z,95521.08
2022-09-21T12:30:08.446Z,95512.73
2022-09-21T12:32:49.790Z,95510.17
2022-09-21T12:36:03.209Z,95511.05
2022-09-21T12:38:43.019Z,95503.34
2022-09-21T12:41:39.973Z,95501.74
2022-09-21T12:44:27.077Z,95496.48
2022-09-21T12:47:09.667Z,95493.20
2022-09-21T12:49:50.899Z,95495.84
2022-09-21T12:52:26.423Z,95493.71
2022-09-21T12:55:02.191Z,95494.55
2022-09-21T12:58:14.569Z,95499.41
2022-09-21T13:01:11.392Z,95502.21
2022-09-21T13:03:49.402Z,95504.40
2022-09-21T13:06:57.090Z,95505.45
2022-09-21T13:09:27.261Z,95501.23
2022-09-21T13:12:19.920Z,95501.47
2022-09-21T13:15:03.294Z,95501.95
2022-09-21T13:17:35.908Z,95508.08
2022-09-21T13:20:23.029Z,95512.80
2022-09-21T13:23:03.432Z,95509.44
2022-09-21T13:25:37.997Z,95512.10
2022-09-21T13:28:19.998Z,95515.80
2022-09-21T13:31:40.392Z,95514.02
2022-09-21T13:34:26.096Z,95514.48
2022-09-21T13:37:11.440Z,95513.40
2022-09-21T13:40:02.136Z,95513.45
2022-09-21T13:42:31.171Z,95516.02
2022-09-21T13:45:19.402Z,95517.38
2022-09-21T13:48:00.204Z,95516.15
2022-09-21T13:50:44.886Z,95517.25
2022-09-21T13:53:19.723Z,95517.31
2022-09-21T13:55:54.025Z,95516.48
2022-09-21T13:58:32.932Z,95517.07
2022-09-21T14:01:35.531Z,95514.65
2022-09-21T14:04:15.693Z,95513.02
2022-09-21T14:06:48.437Z,95512.94
2022-09-21T14:09:43.795Z,95519.57
2022-09-21T14:12:21.808Z,95512.91
2022-09-21T14:15:13.370Z,95514.20
2022-09-21T14:17:44.190Z,95514.82
2022-09-21T14:20:34.617Z,95511.79
2022-09-21T14:23:28.960Z,95514.61
2022-09-21T14:26:02.310Z,95515.95
2022-09-21T14:28:39.911Z,95515.30
2022-09-21T14:31:18.665Z,95508.27
2022-09-21T14:33:59.789Z,95516.77
2022-09-21T14:36:44.078Z,95519.47
2022-09-21T14:39:21.969Z,95517.71
2022-09-21T14:41:54.920Z,95517.41
2022-09-21T14:44:34.146Z,95525.17
2022-09-21T14:47:36.267Z,95526.50
2022-09-21T14:50:15.366Z,95536.20
2022-09-21T14:52:58.703Z,95538.35
2022-09-21T14:56:04.427Z,95548.35
2022-09-21T14:58:46.913Z,95548.33
2022-09-21T15:01:25.414Z,95551.96
2022-09-21T15:04:16.844Z,95549.42
2022-09-21T15:07:26.342Z,95550.20
2022-09-21T15:10:35.434Z,95550.02
2022-09-21T15:13:20.470Z,95552.18
2022-09-21T15:16:11.438Z,95553.32
2022-09-21T15:18:44.336Z,95556.30
2022-09-21T15:21:30.611Z,95558.67
2022-09-21T15:24:01.818Z,95564.69
2022-09-21T15:26:34.519Z,95567.52
2022-09-21T15:29:18.353Z,95572.30
2022-09-21T15:31:48.958Z,95571.80
2022-09-21T15:34:17.247Z,95569.30
2022-09-21T15:36:52.171Z,95571.45
2022-09-21T15:39:31.892Z,95570.57
2022-09-21T15:42:09.107Z,95574.48
2022-09-21T15:44:39.602Z,95580.77
2022-09-21T15:47:09.609Z,95584.55
2022-09-21T15:49:41.968Z,95585.19
2022-09-21T15:52:23.421Z,95589.56
2022-09-21T15:54:57.244Z,95593.75
2022-09-21T15:57:38.807Z,95595.45
2022-09-21T16:00:19.778Z,95598.15
2022-09-21T16:03:20.191Z,95597.04
2022-09-21T16:05:51.430Z,95597.44
2022-09-21T16:08:37.284Z,95598.73
2022-09-21T16:11:33.254Z,95599.26
2022-09-21T16:14:32.890Z,95604.19
2022-09-21T16:17:12.990Z,95603.20
2022-09-21T16:19:45.205Z,95605.78
2022-09-21T16:22:19.955Z,95607.58
2022-09-21T16:24:55.369Z,95608.95
2022-09-21T16:27:29.074Z,95611.87
2022-09-21T16:30:00.339Z,95609.08
2022-09-21T16:32:35.905Z,95609.34
2022-09-21T16:35:29.479Z,95607.48
2022-09-21T16:38:01.567Z,95605.48
2022-09-21T16:40:30.158Z,95606.69
2022-09-21T16:42:58.985Z,95613.52
2022-09-21T16:45:31.413Z,95615.59
2022-09-21T16:47:59.899Z,95617.96
2022-09-21T16:50:28.080Z,95619.36
2022-09-21T16:52:56.265Z,95618.59
2022-09-21T16:55:28.944Z,95620.11
2022-09-21T16:57:57.916Z,95618.61
2022-09-21T17:00:29.395Z,95622.80
2022-09-21T17:02:57.692Z,95622.65
2022-09-21T17:05:26.262Z,95626.66
2022-09-21T17:07:57.799Z,95627.23
2022-09-21T17:10:32.247Z,95633.86
2022-09-21T17:13:00.327Z,95634.02
2022-09-21T17:15:32.588Z,95634.73
2022-09-21T17:18:00.848Z,95634.66
2022-09-21T17:20:35.783Z,95635.05
2022-09-21T17:23:04.845Z,95636.09
2022-09-21T17:25:35.130Z,95640.81
2022-09-21T17:28:12.580Z,95644.13
2022-09-21T17:30:42.668Z,95651.17
2022-09-21T17:33:11.175Z,95648.28
2022-09-21T17:35:41.721Z,95651.54
2022-09-21T17:38:14.166Z,95650.42
2022-09-21T17:40:43.367Z,95652.63
2022-09-21T17:43:14.574Z,95655.05
2022-09-21T17:45:50.575Z,95660.28
2022-09-21T17:48:21.420Z,95658.55
2022-09-21T17:50:50.537Z,95659.08
2022-09-21T17:53:34.778Z,95660.34
2022-09-21T17:56:18.153Z,95662.02
2022-09-21T17:58:52.044Z,95664.18
2022-09-21T18:01:35.188Z,95671.64
2022-09-21T18:04:04.987Z,95681.88
2022-09-21T18:06:34.319Z,95684.89
2022-09-21T18:09:03.620Z,95691.13
2022-09-21T18:11:45.774Z,95700.02
2022-09-21T18:14:44.792Z,95706.32
2022-09-21T18:17:51.484Z,95706.52
2022-09-21T18:20:57.105Z,95709.37
2022-09-21T18:23:43.613Z,95707.30
2022-09-21T18:26:16.518Z,95708.55
2022-09-21T18:28:58.172Z,95705.08
2022-09-21T18:31:54.151Z,95707.74
2022-09-21T18:34:44.162Z,95714.14
2022-09-21T18:37:47.490Z,95711.00
2022-09-21T18:40:41.278Z,95706.60
2022-09-21T18:43:40.499Z,95703.77
2022-09-21T18:46:17.085Z,95705.63
2022-09-21T18:48:56.494Z,95702.69
2022-09-21T18:51:57.683Z,95700.16
2022-09-21T18:54:28.096Z,95699.41
2022-09-21T18:56:56.710Z,95698.25
2022-09-21T18:59:29.608Z,95696.92
2022-09-21T19:02:00.159Z,95697.19
2022-09-21T19:04:29.296Z,95702.13
2022-09-21T19:07:10.841Z,95698.65
2022-09-21T19:09:52.226Z,95698.09
2022-09-21T19:12:28.445Z,95699.96
2022-09-21T19:15:42.303Z,95700.71
2022-09-21T19:18:35.967Z,95696.93
2022-09-21T19:21:28.482Z,95692.66
2022-09-21T19:24:12.028Z,95696.85
2022-09-21T19:27:04.756Z,95695.77
2022-09-21T19:29:47.259Z,95693.09
2022-09-21T19:32:18.537Z,95691.35
2022-09-21T19:34:47.432Z,95689.73
2022-09-21T19:37:15.602Z,95686.70
2022-09-21T19:39:44.007Z,95682.25
2022-09-21T19:42:32.779Z,95682.97
2022-09-21T19:45:31.056Z,95680.94
2022-09-21T19:48:05.099Z,95677.80
2022-09-21T19:50:48.874Z,95672.38
2022-09-21T19:53:35.935Z,95676.29
2022-09-21T19:56:29.417Z,95676.90
2022-09-21T19:59:16.787Z,95676.91
2022-09-21T20:02:05.938Z,95674.09
2022-09-21T20:05:01.755Z,95673.48
2022-09-21T20:07:45.771Z,95676.13
2022-09-21T20:10:24.711Z,95673.63
2022-09-21T20:13:01.767Z,95675.52
2022-09-21T20:16:03.939Z,95676.98
2022-09-21T20:18:40.026Z,95673.19
2022-09-21T20:21:15.554Z,95674.69
2022-09-21T20:23:45.242Z,95672.45
2022-09-21T20:26:27.300Z,95672.80
2022-09-21T20:28:55.623Z,95676.11
2022-09-21T20:31:25.945Z,95676.26
2022-09-21T20:33:54.124Z,95680.63
2022-09-21T20:36:23.001Z,95679.14
2022-09-21T20:38:51.136Z,95675.67
2022-09-21T20:41:20.350Z,95675.39
2022-09-21T20:43:48.416Z,95674.36
2022-09-21T20:46:17.156Z,95673.83
2022-09-21T20:48:45.308Z,95673.95
2022-09-21T20:51:13.411Z,95672.30
2022-09-21T20:53:41.522Z,95676.60
2022-09-21T20:56:09.676Z,95673.46
2022-09-21T20:58:37.970Z,95672.25
2022-09-21T21:01:07.527Z,95671.89
2022-09-21T21:03:37.195Z,95671.36
2022-09-21T21:06:08.458Z,95670.18
2022-09-21T21:08:36.513Z,95670.27
2022-09-21T21:11:04.752Z,95666.35
2022-09-21T21:13:33.733Z,95667.95
2022-09-21T21:16:07.068Z,95670.24
2022-09-21T21:18:42.804Z,95666.80
2022-09-21T21:21:11.730Z,95666.94
2022-09-21T21:24:02.859Z,95667.04
2022-09-21T21:26:57.320Z,95666.14
2022-09-21T21:29:19.686Z,95661.55
2022-09-21T21:31:48.938Z,95659.79
2022-09-21T21:34:17.297Z,95657.42
2022-09-21T21:36:45.670Z,95658.17
2022-09-21T21:39:13.821Z,95653.00
2022-09-21T21:41:43.422Z,95651.31
2022-09-21T21:44:11.833Z,95651.45
2022-09-21T21:46:39.935Z,95651.42
2022-09-21T21:49:08.019Z,95653.34
2022-09-21T21:51:36.178Z,95650.66
2022-09-21T21:54:04.449Z,95648.80
2022-09-21T21:56:32.617Z,95645.92
2022-09-21T21:59:00.852Z,95647.52
2022-09-21T22:01:30.229Z,95648.36
2022-09-21T22:04:01.464Z,95646.36
2022-09-21T22:06:31.502Z,95645.13
2022-09-21T22:09:00.452Z,95643.30
2022-09-21T22:11:29.301Z,95641.36
2022-09-21T22:13:58.885Z,95645.47
2022-09-21T22:16:29.532Z,95646.36
2022-09-21T22:18:58.693Z,95647.96
2022-09-21T22:21:32.492Z,95644.35
2022-09-21T22:24:04.393Z,95639.55
2022-09-21T22:26:37.008Z,95632.78
2022-09-21T22:29:06.973Z,95631.62
2022-09-21T22:31:41.170Z,95624.45
2022-09-21T22:34:09.631Z,95622.92
2022-09-21T22:36:39.135Z,95622.45
2022-09-21T22:39:08.409Z,95620.77
2022-09-21T22:41:41.426Z,95616.31
2022-09-21T22:44:10.788Z,95621.69
2022-09-21T22:46:39.766Z,95620.24
2022-09-21T22:49:08.310Z,95622.83
2022-09-21T22:51:36.513Z,95621.90
2022-09-21T22:54:04.856Z,95623.23
2022-09-21T22:56:33.700Z,95619.73
2022-09-21T22:59:04.286Z,95617.79
2022-09-21T23:01:36.417Z,95610.78
2022-09-21T23:04:13.270Z,95614.95
2022-09-21T23:06:44.944Z,95619.18
2022-09-21T23:09:17.076Z,95615.27
2022-09-21T23:11:53.662Z,95614.57
2022-09-21T23:14:23.387Z,95615.02
2022-09-21T23:16:51.630Z,95611.77
2022-09-21T23:19:19.850Z,95612.02
2022-09-21T23:21:50.221Z,95613.39
2022-09-21T23:24:19.507Z,95610.41
2022-09-21T23:26:50.620Z,95609.70
2022-09-21T23:29:19.103Z,95608.17
2022-09-21T23:31:47.300Z,95608.12
2022-09-21T23:34:16.239Z,95609.25
2022-09-21T23:36:45.643Z,95609.17
2022-09-21T23:39:15.688Z,95607.82
2022-09-21T23:41:44.534Z,95605.56
2022-09-21T23:44:12.694Z,95605.67
2022-09-21T23:46:42.249Z,95608.05
2022-09-21T23:49:10.649Z,95609.12
2022-09-21T23:51:39.962Z,95608.03
2022-09-21T23:54:08.101Z,95609.13
2022-09-21T23:56:36.515Z,95611.70
2022-09-21T23:59:05.676Z,95613.14
